createdAt,value
2024-01-19T00:01:27.991Z,-2.33
2024-01-19T00:04:16.509Z,-2.38
2024-01-19T00:07:05.454Z,-2.41
2024-01-19T00:09:54.753Z,-2.47
2024-01-19T00:12:43.286Z,-2.50
2024-01-19T00:15:37.337Z,-2.54
2024-01-19T00:18:30.692Z,-2.56
2024-01-19T00:21:19.303Z,-2.58
2024-01-19T00:24:07.857Z,-2.61
2024-01-19T00:26:56.692Z,-2.61
2024-01-19T00:29:45.318Z,-2.62
2024-01-19T00:32:33.916Z,-2.62
2024-01-19T00:35:22.614Z,-2.66
2024-01-19T00:38:11.347Z,-2.71
2024-01-19T00:40:59.848Z,-2.79
2024-01-19T00:43:48.415Z,-2.85
2024-01-19T00:46:36.932Z,-2.86
2024-01-19T00:49:25.915Z,-2.87
2024-01-19T00:52:14.536Z,-2.87
2024-01-19T00:55:03.170Z,-2.93
2024-01-19T00:57:51.665Z,-2.97
2024-01-19T01:00:40.722Z,-3.03
2024-01-19T01:03:29.929Z,-3.09
2024-01-19T01:06:18.921Z,-3.15
2024-01-19T01:09:08.498Z,-3.21
2024-01-19T01:11:57.625Z,-3.25
2024-01-19T01:14:48.270Z,-3.27
2024-01-19T01:17:36.996Z,-3.30
2024-01-19T01:20:25.555Z,-3.33
2024-01-19T01:23:14.293Z,-3.36
2024-01-19T01:26:02.944Z,-3.38
2024-01-19T01:28:51.672Z,-3.39
2024-01-19T01:31:40.299Z,-3.38
2024-01-19T01:34:28.855Z,-3.39
2024-01-19T01:37:17.458Z,-3.41
2024-01-19T01:40:07.211Z,-3.42
2024-01-19T01:43:01.854Z,-3.42
2024-01-19T01:45:51.246Z,-3.45
2024-01-19T01:48:40.023Z,-3.45
2024-01-19T01:51:28.910Z,-3.44
2024-01-19T01:54:17.472Z,-3.42
2024-01-19T01:57:07.064Z,-3.45
2024-01-19T01:59:56.368Z,-3.49
2024-01-19T02:03:13.927Z,-3.53
2024-01-19T02:06:12.687Z,-3.52
2024-01-19T02:09:01.681Z,-3.57
2024-01-19T02:11:50.748Z,-3.60
2024-01-19T02:14:39.698Z,-3.60
2024-01-19T02:17:29.115Z,-3.60
2024-01-19T02:20:18.946Z,-3.57
2024-01-19T02:23:14.030Z,-3.56
2024-01-19T02:26:05.792Z,-3.56
2024-01-19T02:28:54.627Z,-3.57
2024-01-19T02:31:43.408Z,-3.58
2024-01-19T02:34:32.343Z,-3.61
2024-01-19T02:37:21.800Z,-3.62
2024-01-19T02:40:11.026Z,-3.63
2024-01-19T02:42:59.833Z,-3.63
2024-01-19T02:45:48.608Z,-3.66
2024-01-19T02:48:37.440Z,-3.74
2024-01-19T02:51:26.248Z,-3.75
2024-01-19T02:54:15.002Z,-3.78
2024-01-19T02:57:04.382Z,-3.79
2024-01-19T02:59:53.158Z,-3.80
2024-01-19T03:02:41.997Z,-3.83
2024-01-19T03:05:30.971Z,-3.86
2024-01-19T03:08:22.912Z,-3.88
2024-01-19T03:11:11.767Z,-3.91
2024-01-19T03:14:00.485Z,-3.93
2024-01-19T03:16:49.355Z,-3.97
2024-01-19T03:19:38.256Z,-4.03
2024-01-19T03:22:28.978Z,-4.07
2024-01-19T03:25:17.762Z,-4.05
2024-01-19T03:28:06.532Z,-4.06
2024-01-19T03:30:55.291Z,-4.09
2024-01-19T03:33:44.058Z,-4.10
2024-01-19T03:36:32.946Z,-4.09
2024-01-19T03:39:23.256Z,-4.07
2024-01-19T03:42:12.036Z,-4.08
2024-01-19T03:45:01.451Z,-4.08
2024-01-19T03:47:50.128Z,-4.06
2024-01-19T03:50:39.084Z,-4.06
2024-01-19T03:53:27.724Z,-4.07
2024-01-19T03:56:16.358Z,-4.10
2024-01-19T03:59:04.910Z,-4.08
2024-01-19T04:01:53.650Z,-4.05
2024-01-19T04:04:42.342Z,-4.01
2024-01-19T04:07:30.981Z,-3.99
2024-01-19T04:10:19.486Z,-3.99
2024-01-19T04:13:08.145Z,-4.00
2024-01-19T04:15:56.922Z,-4.03
2024-01-19T04:18:45.766Z,-4.09
2024-01-19T04:21:34.956Z,-4.14
2024-01-19T04:24:23.429Z,-4.18
2024-01-19T04:27:11.957Z,-4.18
2024-01-19T04:30:00.673Z,-4.18
2024-01-19T04:32:49.536Z,-4.17
2024-01-19T04:35:38.108Z,-4.17
2024-01-19T04:38:26.642Z,-4.18
2024-01-19T04:41:15.176Z,-4.17
2024-01-19T04:44:04.156Z,-4.16
2024-01-19T04:46:53.017Z,-4.15
2024-01-19T04:49:41.580Z,-4.15
2024-01-19T04:52:30.074Z,-4.14
2024-01-19T04:55:19.656Z,-4.12
2024-01-19T04:58:08.170Z,-4.11
2024-01-19T05:00:56.673Z,-4.10
2024-01-19T05:03:45.419Z,-4.08
2024-01-19T05:06:34.078Z,-4.11
2024-01-19T05:09:22.670Z,-4.13
2024-01-19T05:12:11.328Z,-4.12
2024-01-19T05:15:00.103Z,-4.15
2024-01-19T05:17:48.752Z,-4.19
2024-01-19T05:20:39.464Z,-4.22
2024-01-19T05:23:28.796Z,-4.23
2024-01-19T05:26:17.376Z,-4.23
2024-01-19T05:29:05.983Z,-4.22
2024-01-19T05:31:54.573Z,-4.20
2024-01-19T05:34:45.038Z,-4.22
2024-01-19T05:37:33.589Z,-4.27
2024-01-19T05:40:22.079Z,-4.35
2024-01-19T05:43:10.555Z,-4.44
2024-01-19T05:45:59.191Z,-4.47
2024-01-19T05:48:47.799Z,-4.50
2024-01-19T05:51:36.899Z,-4.56
2024-01-19T05:54:25.456Z,-4.60
2024-01-19T05:57:14.092Z,-4.68
2024-01-19T06:00:02.710Z,-4.75
2024-01-19T06:03:00.260Z,-4.83
2024-01-19T06:05:48.954Z,-4.90
2024-01-19T06:08:37.601Z,-4.96
2024-01-19T06:11:26.231Z,-4.99
2024-01-19T06:14:14.735Z,-5.00
2024-01-19T06:17:04.778Z,-5.01
2024-01-19T06:19:53.301Z,-5.00
2024-01-19T06:22:41.972Z,-4.99
2024-01-19T06:25:30.530Z,-5.01
2024-01-19T06:28:19.265Z,-5.05
2024-01-19T06:31:08.931Z,-5.09
2024-01-19T06:33:58.499Z,-5.14
2024-01-19T06:36:47.253Z,-5.20
2024-01-19T06:39:36.378Z,-5.27
2024-01-19T06:42:25.538Z,-5.33
2024-01-19T06:45:17.761Z,-5.39
2024-01-19T06:48:06.676Z,-5.45
2024-01-19T06:50:55.241Z,-5.51
2024-01-19T06:53:44.122Z,-5.51
2024-01-19T06:56:32.675Z,-5.51
2024-01-19T06:59:21.244Z,-5.50
2024-01-19T07:02:09.762Z,-5.47
2024-01-19T07:04:59.050Z,-5.44
2024-01-19T07:07:47.569Z,-5.44
2024-01-19T07:10:36.114Z,-5.44
2024-01-19T07:13:24.674Z,-5.43
2024-01-19T07:16:13.275Z,-5.42
2024-01-19T07:19:01.906Z,-5.41
2024-01-19T07:21:50.747Z,-5.39
2024-01-19T07:24:39.581Z,-5.35
2024-01-19T07:27:28.254Z,-5.34
2024-01-19T07:30:16.950Z,-5.29
2024-01-19T07:33:09.204Z,-5.26
2024-01-19T07:36:01.610Z,-5.19
2024-01-19T07:38:50.400Z,-5.09
2024-01-19T07:41:39.045Z,-4.98
2024-01-19T07:44:27.572Z,-4.86
2024-01-19T07:47:16.104Z,-4.76
2024-01-19T07:50:06.224Z,-4.67
2024-01-19T07:52:55.127Z,-4.60
2024-01-19T07:55:43.648Z,-4.53
2024-01-19T07:58:32.155Z,-4.47
2024-01-19T08:01:20.776Z,-4.38
2024-01-19T08:04:09.323Z,-4.31
2024-01-19T08:06:57.953Z,-4.21
2024-01-19T08:09:46.693Z,-4.12
2024-01-19T08:12:35.216Z,-4.02
2024-01-19T08:15:24.149Z,-3.90
2024-01-19T08:18:12.921Z,-3.76
2024-01-19T08:21:04.794Z,-3.61
2024-01-19T08:23:53.389Z,-3.43
2024-01-19T08:26:42.014Z,-3.29
2024-01-19T08:29:30.647Z,-3.16
2024-01-19T08:32:19.243Z,-3.03
2024-01-19T08:35:11.138Z,-2.89
2024-01-19T08:38:01.243Z,-2.77
2024-01-19T08:40:50.134Z,-2.65
2024-01-19T08:43:42.066Z,-2.56
2024-01-19T08:46:30.657Z,-2.43
2024-01-19T08:49:19.198Z,-2.33
2024-01-19T08:52:07.894Z,-2.25
2024-01-19T08:54:56.460Z,-2.22
2024-01-19T08:57:45.001Z,-2.22
2024-01-19T09:00:33.726Z,-2.14
2024-01-19T09:03:24.194Z,-2.10
2024-01-19T09:06:15.514Z,-2.04
2024-01-19T09:09:05.020Z,-1.97
2024-01-19T09:11:54.144Z,-1.98
2024-01-19T09:14:42.721Z,-1.99
2024-01-19T09:17:31.413Z,-2.02
2024-01-19T09:20:20.064Z,-1.95
2024-01-19T09:23:08.566Z,-1.87
2024-01-19T09:25:57.121Z,-1.83
2024-01-19T09:28:45.939Z,-1.82
2024-01-19T09:31:34.724Z,-1.73
2024-01-19T09:34:24.138Z,-1.51
2024-01-19T09:37:13.533Z,-1.28
2024-01-19T09:40:02.044Z,-1.05
2024-01-19T09:42:55.876Z,-0.97
2024-01-19T09:45:49.379Z,-0.90
2024-01-19T09:48:47.680Z,-0.84
2024-01-19T09:51:46.986Z,-0.74
2024-01-19T09:54:36.127Z,-0.85
2024-01-19T09:57:24.726Z,-0.90
2024-01-19T10:00:18.736Z,-1.00
2024-01-19T10:03:10.289Z,-1.12
2024-01-19T10:05:59.292Z,-1.11
2024-01-19T10:08:47.973Z,-1.13
2024-01-19T10:11:36.742Z,-1.02
2024-01-19T10:14:27.391Z,-0.94
2024-01-19T10:17:17.487Z,-0.92
2024-01-19T10:20:07.520Z,-1.00
2024-01-19T10:22:56.156Z,-0.92
2024-01-19T10:25:44.741Z,-0.80
2024-01-19T10:28:36.429Z,-0.56
2024-01-19T10:31:27.405Z,-0.34
2024-01-19T10:34:18.652Z,-0.19
2024-01-19T10:37:07.523Z,-0.15
2024-01-19T10:39:56.017Z,-0.12
2024-01-19T10:42:47.082Z,-0.18
2024-01-19T10:45:38.963Z,-0.22
2024-01-19T10:48:28.197Z,-0.20
2024-01-19T10:51:20.681Z,-0.10
2024-01-19T10:54:11.610Z,0.07
2024-01-19T10:57:14.262Z,0.11
2024-01-19T11:00:43.151Z,0.14
2024-01-19T11:03:31.995Z,-0.02
2024-01-19T11:06:21.310Z,-0.18
2024-01-19T11:09:09.983Z,-0.19
2024-01-19T11:12:02.367Z,-0.16
2024-01-19T11:14:54.639Z,-0.08
2024-01-19T11:17:43.485Z,-0.04
2024-01-19T11:20:33.504Z,-0.07
2024-01-19T11:23:22.329Z,-0.04
2024-01-19T11:26:39.105Z,-0.15
2024-01-19T11:29:33.191Z,-0.20
2024-01-19T11:32:21.920Z,-0.24
2024-01-19T11:35:14.567Z,-0.28
2024-01-19T11:38:03.101Z,-0.45
2024-01-19T11:40:51.765Z,-0.53
2024-01-19T11:43:42.210Z,-0.55
2024-01-19T11:46:47.283Z,-0.59
2024-01-19T11:49:39.938Z,-0.69
2024-01-19T11:52:33.507Z,-0.73
2024-01-19T11:55:27.859Z,-0.79
2024-01-19T11:58:29.939Z,-0.83
2024-01-19T12:01:18.823Z,-0.92
2024-01-19T12:04:07.630Z,-0.88
2024-01-19T12:07:05.427Z,-0.83
2024-01-19T12:10:14.293Z,-0.80
2024-01-19T12:13:03.618Z,-0.76
2024-01-19T12:15:54.209Z,-0.76
2024-01-19T12:18:43.044Z,-0.70
2024-01-19T12:21:32.300Z,-0.71
2024-01-19T12:24:21.564Z,-0.68
2024-01-19T12:27:10.110Z,-0.67
2024-01-19T12:29:58.598Z,-0.66
2024-01-19T12:32:48.533Z,-0.68
2024-01-19T12:35:37.061Z,-0.73
2024-01-19T12:38:25.896Z,-0.77
2024-01-19T12:41:17.489Z,-0.80
2024-01-19T12:44:06.181Z,-0.85
2024-01-19T12:46:59.430Z,-0.98
2024-01-19T12:49:53.723Z,-1.05
2024-01-19T12:52:49.771Z,-1.11
2024-01-19T12:55:38.364Z,-1.12
2024-01-19T12:58:27.004Z,-1.12
2024-01-19T13:01:17.610Z,-1.16
2024-01-19T13:04:06.184Z,-1.17
2024-01-19T13:06:54.809Z,-1.20
2024-01-19T13:09:43.456Z,-1.25
2024-01-19T13:12:35.124Z,-1.30
2024-01-19T13:15:24.044Z,-1.33
2024-01-19T13:18:19.650Z,-1.40
2024-01-19T13:21:15.742Z,-1.44
2024-01-19T13:24:04.441Z,-1.46
2024-01-19T13:27:00.701Z,-1.48
2024-01-19T13:29:49.338Z,-1.50
2024-01-19T13:32:37.924Z,-1.56
2024-01-19T13:35:26.541Z,-1.62
2024-01-19T13:38:15.165Z,-1.65
2024-01-19T13:41:05.440Z,-1.70
2024-01-19T13:43:57.069Z,-1.74
2024-01-19T13:46:47.203Z,-1.77
2024-01-19T13:49:35.765Z,-1.78
2024-01-19T13:52:24.809Z,-1.80
2024-01-19T13:55:15.288Z,-1.83
2024-01-19T13:58:04.012Z,-1.89
2024-01-19T14:00:52.833Z,-1.93
2024-01-19T14:03:41.594Z,-1.96
2024-01-19T14:06:30.259Z,-2.01
2024-01-19T14:09:19.056Z,-2.04
2024-01-19T14:12:08.109Z,-2.09
2024-01-19T14:14:57.120Z,-2.13
2024-01-19T14:17:46.367Z,-2.18
2024-01-19T14:20:34.918Z,-2.26
2024-01-19T14:23:23.622Z,-2.32
2024-01-19T14:26:12.502Z,-2.35
2024-01-19T14:29:01.531Z,-2.38
2024-01-19T14:31:50.133Z,-2.42
2024-01-19T14:34:43.113Z,-2.47
2024-01-19T14:37:35.664Z,-2.54
2024-01-19T14:40:24.455Z,-2.60
2024-01-19T14:43:13.022Z,-2.69
2024-01-19T14:46:03.178Z,-2.73
2024-01-19T14:48:52.109Z,-2.78
2024-01-19T14:51:42.221Z,-2.84
2024-01-19T14:54:32.099Z,-2.89
2024-01-19T14:57:22.043Z,-2.92
2024-01-19T15:00:10.980Z,-3.00
2024-01-19T15:02:59.718Z,-3.08
2024-01-19T15:05:48.367Z,-3.12
2024-01-19T15:08:36.860Z,-3.14
2024-01-19T15:11:25.698Z,-3.12
2024-01-19T15:14:14.482Z,-3.09
2024-01-19T15:17:04.027Z,-3.06
2024-01-19T15:19:54.721Z,-3.02
2024-01-19T15:22:43.373Z,-2.98
2024-01-19T15:25:31.960Z,-2.96
2024-01-19T15:28:20.587Z,-2.94
2024-01-19T15:31:09.335Z,-2.91
2024-01-19T15:33:58.045Z,-2.87
2024-01-19T15:36:46.716Z,-2.84
2024-01-19T15:39:35.280Z,-2.83
2024-01-19T15:42:24.922Z,-2.82
2024-01-19T15:45:15.004Z,-2.82
2024-01-19T15:48:03.815Z,-2.83
2024-01-19T15:50:52.545Z,-2.82
2024-01-19T15:53:42.974Z,-2.81
2024-01-19T15:56:37.274Z,-2.78
2024-01-19T15:59:27.066Z,-2.76
2024-01-19T16:02:15.672Z,-2.76
2024-01-19T16:05:04.840Z,-2.78
2024-01-19T16:07:53.536Z,-2.77
2024-01-19T16:10:42.217Z,-2.75
2024-01-19T16:13:32.023Z,-2.73
2024-01-19T16:16:20.647Z,-2.72
2024-01-19T16:19:09.193Z,-2.72
2024-01-19T16:22:01.461Z,-2.73
2024-01-19T16:24:50.031Z,-2.73
2024-01-19T16:27:38.664Z,-2.73
2024-01-19T16:30:27.249Z,-2.73
2024-01-19T16:33:15.871Z,-2.71
2024-01-19T16:36:07.616Z,-2.68
2024-01-19T16:38:56.814Z,-2.66
2024-01-19T16:41:48.072Z,-2.66
2024-01-19T16:44:36.721Z,-2.65
2024-01-19T16:47:25.226Z,-2.66
2024-01-19T16:50:13.879Z,-2.65
2024-01-19T16:53:02.638Z,-2.64
2024-01-19T16:55:51.199Z,-2.63
2024-01-19T16:58:39.805Z,-2.62
2024-01-19T17:01:28.976Z,-2.62
2024-01-19T17:04:17.585Z,-2.62
2024-01-19T17:07:06.137Z,-2.62
2024-01-19T17:09:54.699Z,-2.62
2024-01-19T17:12:44.541Z,-2.63
2024-01-19T17:15:33.059Z,-2.60
2024-01-19T17:18:21.776Z,-2.59
2024-01-19T17:21:10.413Z,-2.59
2024-01-19T17:24:00.634Z,-2.60
2024-01-19T17:26:50.962Z,-2.62
2024-01-19T17:29:40.544Z,-2.63
2024-01-19T17:32:32.774Z,-2.65
2024-01-19T17:35:23.522Z,-2.66
2024-01-19T17:38:12.268Z,-2.65
2024-01-19T17:41:00.819Z,-2.64
2024-01-19T17:43:50.299Z,-2.62
2024-01-19T17:46:38.898Z,-2.62
2024-01-19T17:49:29.486Z,-2.63
2024-01-19T17:52:18.052Z,-2.66
2024-01-19T17:55:08.897Z,-2.69
2024-01-19T17:57:58.834Z,-2.70
2024-01-19T18:00:48.586Z,-2.70
2024-01-19T18:03:37.449Z,-2.69
2024-01-19T18:06:26.243Z,-2.68
2024-01-19T18:09:16.321Z,-2.65
2024-01-19T18:12:05.831Z,-2.65
2024-01-19T18:14:54.543Z,-2.65
2024-01-19T18:17:43.284Z,-2.67
2024-01-19T18:20:32.595Z,-2.67
2024-01-19T18:23:21.311Z,-2.64
2024-01-19T18:26:10.491Z,-2.62
2024-01-19T18:28:59.464Z,-2.60
2024-01-19T18:31:48.221Z,-2.60
2024-01-19T18:34:38.597Z,-2.59
2024-01-19T18:37:27.330Z,-2.60
2024-01-19T18:40:15.988Z,-2.61
2024-01-19T18:43:04.908Z,-2.62
2024-01-19T18:45:53.455Z,-2.59
2024-01-19T18:48:42.251Z,-2.58
2024-01-19T18:51:31.402Z,-2.56
2024-01-19T18:54:20.172Z,-2.54
2024-01-19T18:57:09.163Z,-2.55
2024-01-19T18:59:58.177Z,-2.57
2024-01-19T19:02:47.113Z,-2.56
2024-01-19T19:05:36.995Z,-2.55
2024-01-19T19:08:27.811Z,-2.52
2024-01-19T19:11:17.653Z,-2.51
2024-01-19T19:14:06.314Z,-2.52
2024-01-19T19:16:55.469Z,-2.53
2024-01-19T19:19:44.022Z,-2.53
2024-01-19T19:22:32.666Z,-2.55
2024-01-19T19:25:21.260Z,-2.56
2024-01-19T19:28:10.011Z,-2.58
2024-01-19T19:30:58.525Z,-2.59
2024-01-19T19:33:48.219Z,-2.57
2024-01-19T19:36:37.283Z,-2.57
2024-01-19T19:39:25.867Z,-2.56
2024-01-19T19:42:16.222Z,-2.55
2024-01-19T19:45:05.658Z,-2.56
2024-01-19T19:47:54.271Z,-2.58
2024-01-19T19:50:42.922Z,-2.60
2024-01-19T19:53:31.656Z,-2.59
2024-01-19T19:56:20.310Z,-2.59
2024-01-19T19:59:08.933Z,-2.58
2024-01-19T20:01:57.479Z,-2.56
2024-01-19T20:04:46.946Z,-2.53
2024-01-19T20:07:35.552Z,-2.51
2024-01-19T20:10:24.686Z,-2.52
2024-01-19T20:13:13.500Z,-2.54
2024-01-19T20:16:02.168Z,-2.57
2024-01-19T20:18:52.685Z,-2.62
2024-01-19T20:21:41.241Z,-2.64
2024-01-19T20:24:29.844Z,-2.62
2024-01-19T20:27:18.369Z,-2.60
2024-01-19T20:30:08.382Z,-2.58
2024-01-19T20:32:57.560Z,-2.57
2024-01-19T20:35:46.304Z,-2.57
2024-01-19T20:38:35.942Z,-2.56
2024-01-19T20:41:24.765Z,-2.58
2024-01-19T20:44:13.436Z,-2.58
2024-01-19T20:47:02.370Z,-2.57
2024-01-19T20:49:51.130Z,-2.54
2024-01-19T20:52:39.922Z,-2.52
2024-01-19T20:55:28.466Z,-2.49
2024-01-19T20:58:17.021Z,-2.49
2024-01-19T21:01:06.143Z,-2.49
2024-01-19T21:03:54.694Z,-2.49
2024-01-19T21:06:43.675Z,-2.49
2024-01-19T21:09:32.977Z,-2.50
2024-01-19T21:12:23.858Z,-2.49
2024-01-19T21:15:14.985Z,-2.50
2024-01-19T21:18:04.129Z,-2.53
2024-01-19T21:20:52.793Z,-2.57
2024-01-19T21:23:42.375Z,-2.59
2024-01-19T21:26:32.326Z,-2.61
2024-01-19T21:29:20.879Z,-2.61
2024-01-19T21:32:10.733Z,-2.61
2024-01-19T21:34:59.698Z,-2.59
2024-01-19T21:37:49.093Z,-2.58
2024-01-19T21:40:38.428Z,-2.57
2024-01-19T21:43:27.097Z,-2.57
2024-01-19T21:46:16.412Z,-2.59
2024-01-19T21:49:07.124Z,-2.60
2024-01-19T21:51:55.694Z,-2.58
2024-01-19T21:54:45.033Z,-2.56
2024-01-19T21:57:33.939Z,-2.55
2024-01-19T22:00:22.715Z,-2.53
2024-01-19T22:03:11.805Z,-2.54
2024-01-19T22:06:00.690Z,-2.56
2024-01-19T22:08:49.585Z,-2.55
2024-01-19T22:11:46.784Z,-2.55
2024-01-19T22:14:40.040Z,-2.53
2024-01-19T22:17:28.775Z,-2.51
2024-01-19T22:20:17.549Z,-2.51
2024-01-19T22:23:06.207Z,-2.52
2024-01-19T22:25:54.762Z,-2.53
2024-01-19T22:28:43.293Z,-2.57
2024-01-19T22:31:32.868Z,-2.56
2024-01-19T22:34:23.387Z,-2.57
2024-01-19T22:37:14.949Z,-2.57
2024-01-19T22:40:03.819Z,-2.57
2024-01-19T22:42:52.351Z,-2.56
2024-01-19T22:45:41.436Z,-2.56
2024-01-19T22:48:30.406Z,-2.57
2024-01-19T22:51:19.630Z,-2.58
2024-01-19T22:54:09.000Z,-2.58
2024-01-19T22:56:57.530Z,-2.56
2024-01-19T22:59:46.221Z,-2.54
2024-01-19T23:02:35.472Z,-2.52
2024-01-19T23:05:24.215Z,-2.50
2024-01-19T23:08:13.020Z,-2.50
2024-01-19T23:11:01.667Z,-2.52
2024-01-19T23:13:50.418Z,-2.54
2024-01-19T23:16:40.390Z,-2.54
2024-01-19T23:19:31.767Z,-2.54
2024-01-19T23:22:20.881Z,-2.57
2024-01-19T23:25:16.589Z,-2.56
2024-01-19T23:28:11.371Z,-2.55
2024-01-19T23:30:59.965Z,-2.58
2024-01-19T23:33:48.575Z,-2.58
2024-01-19T23:36:37.842Z,-2.55
2024-01-19T23:39:27.624Z,-2.54
2024-01-19T23:42:17.903Z,-2.53
2024-01-19T23:45:07.446Z,-2.52
2024-01-19T23:47:57.683Z,-2.53
2024-01-19T23:50:46.270Z,-2.54
2024-01-19T23:53:34.881Z,-2.56
2024-01-19T23:56:23.464Z,-2.53
2024-01-19T23:59:12.188Z,-2.51
